sensor_id;sensor_type;location;lat;lon;timestamp;pressure;altitude;pressure_sealevel;temperature;humidity
33185;BME280;19550;42.872;25.494;2023-05-02T00:01:14;96900.63;;;7.46;100.00
33185;BME280;19550;42.872;25.494;2023-05-02T00:03:40;96896.53;;;7.44;100.00
33185;BME280;19550;42.872;25.494;2023-05-02T00:06:08;96899.63;;;7.32;100.00
33185;BME280;19550;42.872;25.494;2023-05-02T00:08:35;96896.38;;;7.25;100.00
33185;BME280;19550;42.872;25.494;2023-05-02T00:11:04;96904.63;;;7.30;100.00
33185;BME280;19550;42.872;25.494;2023-05-02T00:13:31;96899.34;;;7.34;100.00
33185;BME280;19550;42.872;25.494;2023-05-02T00:15:57;96907.63;;;7.34;100.00
33185;BME280;19550;42.872;25.494;2023-05-02T00:18:24;96905.47;;;7.26;100.00
33185;BME280;19550;42.872;25.494;2023-05-02T00:20:51;96914.56;;;7.26;100.00
33185;BME280;19550;42.872;25.494;2023-05-02T00:23:18;96908.22;;;7.26;100.00
33185;BME280;19550;42.872;25.494;2023-05-02T00:25:45;96909.09;;;7.21;100.00
33185;BME280;19550;42.872;25.494;2023-05-02T00:28:13;96907.72;;;7.18;100.00
33185;BME280;19550;42.872;25.494;2023-05-02T00:30:43;96904.69;;;7.20;100.00
33185;BME280;19550;42.872;25.494;2023-05-02T00:33:10;96911.69;;;7.02;100.00
33185;BME280;19550;42.872;25.494;2023-05-02T00:35:39;96907.34;;;6.96;100.00
33185;BME280;19550;42.872;25.494;2023-05-02T00:38:06;96901.25;;;6.99;100.00
33185;BME280;19550;42.872;25.494;2023-05-02T00:40:42;96905.66;;;7.00;100.00
33185;BME280;19550;42.872;25.494;2023-05-02T00:43:10;96917.47;;;7.06;100.00
33185;BME280;19550;42.872;25.494;2023-05-02T00:45:39;96909.31;;;6.86;100.00
33185;BME280;19550;42.872;25.494;2023-05-02T00:48:08;96912.88;;;6.91;100.00
33185;BME280;19550;42.872;25.494;2023-05-02T00:50:36;96915.03;;;6.99;100.00
33185;BME280;19550;42.872;25.494;2023-05-02T00:53:05;96907.94;;;6.88;100.00
33185;BME280;19550;42.872;25.494;2023-05-02T00:55:32;96912.91;;;6.86;100.00
33185;BME280;19550;42.872;25.494;2023-05-02T00:57:59;96917.25;;;6.92;100.00
33185;BME280;19550;42.872;25.494;2023-05-02T01:00:47;96918.78;;;6.69;100.00
33185;BME280;19550;42.872;25.494;2023-05-02T01:03:38;96920.69;;;6.74;100.00
33185;BME280;19550;42.872;25.494;2023-05-02T01:06:17;96917.06;;;6.84;100.00
33185;BME280;19550;42.872;25.494;2023-05-02T01:08:51;96909.81;;;6.93;100.00
33185;BME280;19550;42.872;25.494;2023-05-02T01:11:28;96913.75;;;6.82;100.00
33185;BME280;19550;42.872;25.494;2023-05-02T01:14:03;96908.28;;;6.76;100.00
33185;BME280;19550;42.872;25.494;2023-05-02T01:16:33;96904.75;;;6.66;100.00
33185;BME280;19550;42.872;25.494;2023-05-02T01:19:05;96910.25;;;6.71;100.00
33185;BME280;19550;42.872;25.494;2023-05-02T01:21:36;96909.19;;;6.62;100.00
33185;BME280;19550;42.872;25.494;2023-05-02T01:24:08;96921.06;;;6.57;100.00
33185;BME280;19550;42.872;25.494;2023-05-02T01:26:44;96905.69;;;6.41;100.00
33185;BME280;19550;42.872;25.494;2023-05-02T01:29:19;96907.31;;;6.47;100.00
33185;BME280;19550;42.872;25.494;2023-05-02T01:31:49;96908.97;;;6.48;100.00
33185;BME280;19550;42.872;25.494;2023-05-02T01:34:18;96913.88;;;6.56;100.00
33185;BME280;19550;42.872;25.494;2023-05-02T01:36:47;96912.22;;;6.60;100.00
33185;BME280;19550;42.872;25.494;2023-05-02T01:39:18;96911.13;;;6.56;100.00
33185;BME280;19550;42.872;25.494;2023-05-02T01:41:48;96920.47;;;6.60;100.00
33185;BME280;19550;42.872;25.494;2023-05-02T01:44:17;96906.97;;;6.64;100.00
33185;BME280;19550;42.872;25.494;2023-05-02T01:46:45;96910.03;;;6.52;100.00
33185;BME280;19550;42.872;25.494;2023-05-02T01:49:13;96910.34;;;6.46;100.00
33185;BME280;19550;42.872;25.494;2023-05-02T01:51:43;96911.72;;;6.48;100.00
33185;BME280;19550;42.872;25.494;2023-05-02T01:54:12;96913.91;;;6.51;100.00
33185;BME280;19550;42.872;25.494;2023-05-02T01:56:39;96912.25;;;6.45;100.00
33185;BME280;19550;42.872;25.494;2023-05-02T01:59:09;96909.53;;;6.40;100.00
33185;BME280;19550;42.872;25.494;2023-05-02T02:01:39;96906.78;;;6.40;100.00
33185;BME280;19550;42.872;25.494;2023-05-02T02:04:08;96901.38;;;6.25;100.00
33185;BME280;19550;42.872;25.494;2023-05-02T02:06:37;96909.88;;;6.18;100.00
33185;BME280;19550;42.872;25.494;2023-05-02T02:09:04;96904.38;;;6.18;100.00
33185;BME280;19550;42.872;25.494;2023-05-02T02:11:36;96908.53;;;6.16;100.00
33185;BME280;19550;42.872;25.494;2023-05-02T02:14:06;96909.38;;;6.16;100.00
33185;BME280;19550;42.872;25.494;2023-05-02T02:16:40;96905.50;;;6.17;100.00
33185;BME280;19550;42.872;25.494;2023-05-02T02:19:12;96907.16;;;6.13;100.00
33185;BME280;19550;42.872;25.494;2023-05-02T02:21:41;96908.25;;;6.12;100.00
33185;BME280;19550;42.872;25.494;2023-05-02T02:24:09;96904.44;;;6.08;100.00
33185;BME280;19550;42.872;25.494;2023-05-02T02:26:36;96899.19;;;6.07;100.00
33185;BME280;19550;42.872;25.494;2023-05-02T02:29:03;96909.66;;;5.99;100.00
33185;BME280;19550;42.872;25.494;2023-05-02T02:31:31;96906.41;;;5.97;100.00
33185;BME280;19550;42.872;25.494;2023-05-02T02:33:59;96906.13;;;5.94;100.00
33185;BME280;19550;42.872;25.494;2023-05-02T02:36:29;96912.41;;;5.99;100.00
33185;BME280;19550;42.872;25.494;2023-05-02T02:39:07;96901.44;;;5.94;100.00
33185;BME280;19550;42.872;25.494;2023-05-02T02:41:41;96900.06;;;5.82;100.00
33185;BME280;19550;42.872;25.494;2023-05-02T02:44:21;96913.56;;;5.78;100.00
33185;BME280;19550;42.872;25.494;2023-05-02T02:46:59;96903.34;;;5.79;100.00
33185;BME280;19550;42.872;25.494;2023-05-02T02:49:37;96911.91;;;5.77;100.00
33185;BME280;19550;42.872;25.494;2023-05-02T02:52:09;96903.91;;;5.66;100.00
33185;BME280;19550;42.872;25.494;2023-05-02T02:54:45;96906.97;;;5.64;100.00
33185;BME280;19550;42.872;25.494;2023-05-02T02:57:15;96914.41;;;5.64;100.00
33185;BME280;19550;42.872;25.494;2023-05-02T02:59:50;96903.97;;;5.50;100.00
33185;BME280;19550;42.872;25.494;2023-05-02T03:02:21;96913.56;;;5.53;100.00
33185;BME280;19550;42.872;25.494;2023-05-02T03:04:52;96919.06;;;5.43;100.00
33185;BME280;19550;42.872;25.494;2023-05-02T03:07:20;96928.44;;;5.37;100.00
33185;BME280;19550;42.872;25.494;2023-05-02T03:09:47;96913.84;;;5.36;100.00
33185;BME280;19550;42.872;25.494;2023-05-02T03:12:14;96919.63;;;5.50;100.00
33185;BME280;19550;42.872;25.494;2023-05-02T03:14:41;96916.03;;;5.59;100.00
33185;BME280;19550;42.872;25.494;2023-05-02T03:17:08;96921.81;;;5.53;100.00
33185;BME280;19550;42.872;25.494;2023-05-02T03:19:35;96917.69;;;5.50;100.00
33185;BME280;19550;42.872;25.494;2023-05-02T03:22:04;96914.94;;;5.55;100.00
33185;BME280;19550;42.872;25.494;2023-05-02T03:24:31;96915.78;;;5.56;100.00
33185;BME280;19550;42.872;25.494;2023-05-02T03:26:58;96911.34;;;5.65;100.00
33185;BME280;19550;42.872;25.494;2023-05-02T03:29:25;96920.44;;;5.60;100.00
33185;BME280;19550;42.872;25.494;2023-05-02T03:31:53;96920.97;;;5.73;100.00
33185;BME280;19550;42.872;25.494;2023-05-02T03:34:19;96925.09;;;5.75;100.00
33185;BME280;19550;42.872;25.494;2023-05-02T03:36:47;96930.59;;;5.80;100.00
33185;BME280;19550;42.872;25.494;2023-05-02T03:39:15;96923.72;;;5.88;100.00
33185;BME280;19550;42.872;25.494;2023-05-02T03:41:42;96926.19;;;5.99;100.00
33185;BME280;19550;42.872;25.494;2023-05-02T03:44:09;96934.16;;;6.01;100.00
33185;BME280;19550;42.872;25.494;2023-05-02T03:46:36;96934.44;;;5.99;100.00
33185;BME280;19550;42.872;25.494;2023-05-02T03:49:03;96926.41;;;6.13;100.00
33185;BME280;19550;42.872;25.494;2023-05-02T03:51:30;96932.44;;;6.25;100.00
33185;BME280;19550;42.872;25.494;2023-05-02T03:53:59;96924.44;;;6.34;100.00
33185;BME280;19550;42.872;25.494;2023-05-02T03:56:27;96935.72;;;6.37;100.00
33185;BME280;19550;42.872;25.494;2023-05-02T03:58:54;96931.53;;;6.45;100.00
33185;BME280;19550;42.872;25.494;2023-05-02T04:01:21;96931.78;;;6.54;100.00
33185;BME280;19550;42.872;25.494;2023-05-02T04:03:48;96920.72;;;6.69;100.00
33185;BME280;19550;42.872;25.494;2023-05-02T04:06:15;96930.84;;;6.78;100.00
33185;BME280;19550;42.872;25.494;2023-05-02T04:08:42;96936.88;;;6.86;100.00
33185;BME280;19550;42.872;25.494;2023-05-02T04:11:09;96929.38;;;6.96;100.00
33185;BME280;19550;42.872;25.494;2023-05-02T04:13:37;96926.56;;;7.06;100.00
33185;BME280;19550;42.872;25.494;2023-05-02T04:16:04;96921.19;;;7.25;100.00
33185;BME280;19550;42.872;25.494;2023-05-02T04:18:31;96919.97;;;7.41;100.00
33185;BME280;19550;42.872;25.494;2023-05-02T04:20:58;96927.63;;;7.49;100.00
33185;BME280;19550;42.872;25.494;2023-05-02T04:23:25;96927.53;;;7.59;100.00
33185;BME280;19550;42.872;25.494;2023-05-02T04:25:52;96929.00;;;7.81;100.00
33185;BME280;19550;42.872;25.494;2023-05-02T04:28:19;96920.59;;;7.96;100.00
33185;BME280;19550;42.872;25.494;2023-05-02T04:30:48;96921.84;;;8.09;100.00
33185;BME280;19550;42.872;25.494;2023-05-02T04:33:16;96927.72;;;8.31;100.00
33185;BME280;19550;42.872;25.494;2023-05-02T04:35:43;96930.47;;;8.55;100.00
33185;BME280;19550;42.872;25.494;2023-05-02T04:38:10;96920.34;;;8.69;100.00
33185;BME280;19550;42.872;25.494;2023-05-02T04:40:37;96917.06;;;8.86;100.00
33185;BME280;19550;42.872;25.494;2023-05-02T04:43:04;96921.66;;;8.95;100.00
33185;BME280;19550;42.872;25.494;2023-05-02T04:45:33;96914.09;;;9.20;100.00
33185;BME280;19550;42.872;25.494;2023-05-02T04:48:02;96919.78;;;9.47;100.00
33185;BME280;19550;42.872;25.494;2023-05-02T04:50:29;96926.53;;;9.73;100.00
33185;BME280;19550;42.872;25.494;2023-05-02T04:52:56;96924.56;;;9.92;100.00
33185;BME280;19550;42.872;25.494;2023-05-02T04:55:23;96923.88;;;10.14;100.00
33185;BME280;19550;42.872;25.494;2023-05-02T04:57:50;96928.06;;;10.44;100.00
33185;BME280;19550;42.872;25.494;2023-05-02T05:00:17;96936.91;;;10.73;100.00
33185;BME280;19550;42.872;25.494;2023-05-02T05:02:44;96931.34;;;11.01;100.00
33185;BME280;19550;42.872;25.494;2023-05-02T05:05:12;96930.16;;;11.29;93.65
33185;BME280;19550;42.872;25.494;2023-05-02T05:07:39;96937.16;;;11.63;89.11
33185;BME280;19550;42.872;25.494;2023-05-02T05:10:06;96938.97;;;12.03;85.49
33185;BME280;19550;42.872;25.494;2023-05-02T05:12:35;96931.63;;;12.38;82.46
33185;BME280;19550;42.872;25.494;2023-05-02T05:15:02;96925.53;;;12.67;76.29
33185;BME280;19550;42.872;25.494;2023-05-02T05:17:29;96935.66;;;13.02;74.52
33185;BME280;19550;42.872;25.494;2023-05-02T05:19:56;96923.78;;;13.28;74.17
33185;BME280;19550;42.872;25.494;2023-05-02T05:22:24;96932.00;;;13.59;71.12
33185;BME280;19550;42.872;25.494;2023-05-02T05:24:51;96924.13;;;13.78;69.66
33185;BME280;19550;42.872;25.494;2023-05-02T05:27:18;96926.75;;;14.00;67.31
33185;BME280;19550;42.872;25.494;2023-05-02T05:29:45;96933.28;;;14.21;68.35
33185;BME280;19550;42.872;25.494;2023-05-02T05:32:12;96935.88;;;14.35;65.20
33185;BME280;19550;42.872;25.494;2023-05-02T05:34:39;96934.88;;;14.48;65.92
33185;BME280;19550;42.872;25.494;2023-05-02T05:37:06;96925.94;;;14.72;62.72
33185;BME280;19550;42.872;25.494;2023-05-02T05:39:34;96929.84;;;14.80;63.25
33185;BME280;19550;42.872;25.494;2023-05-02T05:42:01;96931.41;;;14.89;62.71
33185;BME280;19550;42.872;25.494;2023-05-02T05:44:28;96936.13;;;15.06;60.26
33185;BME280;19550;42.872;25.494;2023-05-02T05:46:55;96934.28;;;15.10;61.20
33185;BME280;19550;42.872;25.494;2023-05-02T05:49:22;96933.56;;;15.22;59.82
33185;BME280;19550;42.872;25.494;2023-05-02T05:51:49;96927.53;;;15.40;58.48
33185;BME280;19550;42.872;25.494;2023-05-02T05:54:16;96926.16;;;15.55;57.98
33185;BME280;19550;42.872;25.494;2023-05-02T05:56:45;96920.44;;;15.72;55.80
33185;BME280;19550;42.872;25.494;2023-05-02T05:59:12;96930.28;;;15.90;55.42
33185;BME280;19550;42.872;25.494;2023-05-02T06:01:39;96925.84;;;16.10;55.95
33185;BME280;19550;42.872;25.494;2023-05-02T06:04:06;96917.28;;;16.27;52.82
33185;BME280;19550;42.872;25.494;2023-05-02T06:06:33;96924.34;;;16.46;53.83
33185;BME280;19550;42.872;25.494;2023-05-02T06:09:00;96930.75;;;16.46;52.31
33185;BME280;19550;42.872;25.494;2023-05-02T06:11:27;96913.13;;;16.46;50.78
33185;BME280;19550;42.872;25.494;2023-05-02T06:13:55;96921.66;;;16.49;50.18
33185;BME280;19550;42.872;25.494;2023-05-02T06:16:22;96918.47;;;16.72;50.84
33185;BME280;19550;42.872;25.494;2023-05-02T06:18:49;96920.84;;;16.94;50.10
33185;BME280;19550;42.872;25.494;2023-05-02T06:21:16;96925.03;;;16.88;49.32
33185;BME280;19550;42.872;25.494;2023-05-02T06:23:43;96917.69;;;17.07;48.50
33185;BME280;19550;42.872;25.494;2023-05-02T06:26:10;96923.41;;;17.11;47.94
33185;BME280;19550;42.872;25.494;2023-05-02T06:28:37;96918.25;;;17.25;48.33
33185;BME280;19550;42.872;25.494;2023-05-02T06:31:05;96928.75;;;17.53;49.17
33185;BME280;19550;42.872;25.494;2023-05-02T06:33:33;96935.19;;;17.65;47.87
33185;BME280;19550;42.872;25.494;2023-05-02T06:36:00;96926.50;;;17.70;48.03
33185;BME280;19550;42.872;25.494;2023-05-02T06:38:26;96930.75;;;17.40;48.97
33185;BME280;19550;42.872;25.494;2023-05-02T06:40:53;96914.72;;;17.65;48.55
33185;BME280;19550;42.872;25.494;2023-05-02T06:43:20;96935.28;;;17.57;47.38
33185;BME280;19550;42.872;25.494;2023-05-02T06:45:47;96943.13;;;17.39;47.43
33185;BME280;19550;42.872;25.494;2023-05-02T06:48:15;96934.50;;;17.32;46.90
33185;BME280;19550;42.872;25.494;2023-05-02T06:50:42;96926.03;;;17.56;46.50
33185;BME280;19550;42.872;25.494;2023-05-02T06:53:10;96938.56;;;17.46;46.59
33185;BME280;19550;42.872;25.494;2023-05-02T06:55:37;96936.56;;;17.59;nan
33185;BME280;19550;42.872;25.494;2023-05-02T06:58:04;96944.16;;;17.59;44.06
33185;BME280;19550;42.872;25.494;2023-05-02T07:00:31;96942.69;;;17.61;45.32
33185;BME280;19550;42.872;25.494;2023-05-02T07:02:57;96950.81;;;17.78;45.27
33185;BME280;19550;42.872;25.494;2023-05-02T07:05:26;96944.97;;;17.71;44.09
33185;BME280;19550;42.872;25.494;2023-05-02T07:07:52;96948.03;;;17.54;43.32
33185;BME280;19550;42.872;25.494;2023-05-02T07:10:19;96938.44;;;17.67;44.39
33185;BME280;19550;42.872;25.494;2023-05-02T07:12:47;96948.28;;;17.61;42.95
33185;BME280;19550;42.872;25.494;2023-05-02T07:15:14;96956.66;;;17.73;41.91
33185;BME280;19550;42.872;25.494;2023-05-02T07:17:41;96937.97;;;17.53;41.74
33185;BME280;19550;42.872;25.494;2023-05-02T07:20:09;96950.25;;;17.73;41.26
33185;BME280;19550;42.872;25.494;2023-05-02T07:22:38;96959.31;;;17.82;41.70
33185;BME280;19550;42.872;25.494;2023-05-02T07:25:05;96958.50;;;17.94;42.19
33185;BME280;19550;42.872;25.494;2023-05-02T07:27:32;96948.31;;;17.89;40.64
33185;BME280;19550;42.872;25.494;2023-05-02T07:29:59;96952.63;;;17.99;41.30
33185;BME280;19550;42.872;25.494;2023-05-02T07:32:26;96951.56;;;18.03;40.76
33185;BME280;19550;42.872;25.494;2023-05-02T07:34:53;96947.84;;;18.27;39.42
33185;BME280;19550;42.872;25.494;2023-05-02T07:37:20;96956.06;;;18.20;39.49
33185;BME280;19550;42.872;25.494;2023-05-02T07:39:48;96969.53;;;18.14;38.86
33185;BME280;19550;42.872;25.494;2023-05-02T07:42:15;96956.00;;;18.32;39.45
33185;BME280;19550;42.872;25.494;2023-05-02T07:44:42;96951.28;;;18.20;38.34
33185;BME280;19550;42.872;25.494;2023-05-02T07:47:09;96949.84;;;18.26;39.19
33185;BME280;19550;42.872;25.494;2023-05-02T07:49:36;96953.44;;;18.67;39.24
33185;BME280;19550;42.872;25.494;2023-05-02T07:52:03;96959.44;;;18.97;39.25
33185;BME280;19550;42.872;25.494;2023-05-02T07:54:30;96952.53;;;19.10;38.68
33185;BME280;19550;42.872;25.494;2023-05-02T07:56:58;96954.25;;;19.15;39.43
33185;BME280;19550;42.872;25.494;2023-05-02T07:59:28;96946.09;;;19.10;38.42
33185;BME280;19550;42.872;25.494;2023-05-02T08:01:55;96950.91;;;19.25;38.20
33185;BME280;19550;42.872;25.494;2023-05-02T08:04:22;96941.47;;;19.33;37.58
33185;BME280;19550;42.872;25.494;2023-05-02T08:06:49;96957.00;;;19.58;38.15
33185;BME280;19550;42.872;25.494;2023-05-02T08:09:16;96963.88;;;19.61;36.80
33185;BME280;19550;42.872;25.494;2023-05-02T08:11:42;96957.06;;;19.30;36.59
33185;BME280;19550;42.872;25.494;2023-05-02T08:14:11;96972.06;;;19.34;36.86
33185;BME280;19550;42.872;25.494;2023-05-02T08:16:37;96971.75;;;19.08;37.99
33185;BME280;19550;42.872;25.494;2023-05-02T08:19:04;96970.66;;;18.81;37.99
33185;BME280;19550;42.872;25.494;2023-05-02T08:21:31;96972.59;;;18.93;38.40
33185;BME280;19550;42.872;25.494;2023-05-02T08:23:58;96967.94;;;19.16;38.80
33185;BME280;19550;42.872;25.494;2023-05-02T08:26:26;96973.84;;;19.42;37.41
33185;BME280;19550;42.872;25.494;2023-05-02T08:28:53;96961.88;;;19.61;39.11
33185;BME280;19550;42.872;25.494;2023-05-02T08:31:21;96967.78;;;19.40;37.36
33185;BME280;19550;42.872;25.494;2023-05-02T08:33:48;96963.53;;;19.47;38.92
33185;BME280;19550;42.872;25.494;2023-05-02T08:36:17;96960.31;;;19.64;38.33
33185;BME280;19550;42.872;25.494;2023-05-02T08:38:44;96961.03;;;19.76;38.34
33185;BME280;19550;42.872;25.494;2023-05-02T08:41:13;96983.94;;;19.59;37.70
33185;BME280;19550;42.872;25.494;2023-05-02T08:43:41;96967.84;;;19.28;38.77
33185;BME280;19550;42.872;25.494;2023-05-02T08:46:09;96968.13;;;19.70;38.71
33185;BME280;19550;42.872;25.494;2023-05-02T08:48:39;96968.00;;;19.82;37.18
33185;BME280;19550;42.872;25.494;2023-05-02T08:51:07;96969.59;;;19.49;37.83
33185;BME280;19550;42.872;25.494;2023-05-02T08:53:36;96956.75;;;19.82;38.48
33185;BME280;19550;42.872;25.494;2023-05-02T08:56:03;96964.91;;;19.88;37.59
33185;BME280;19550;42.872;25.494;2023-05-02T08:58:31;96961.59;;;19.35;38.27
33185;BME280;19550;42.872;25.494;2023-05-02T09:01:00;96955.91;;;19.82;37.98
33185;BME280;19550;42.872;25.494;2023-05-02T09:03:29;96971.63;;;19.83;37.82
33185;BME280;19550;42.872;25.494;2023-05-02T09:06:04;96967.34;;;19.54;38.01
33185;BME280;19550;42.872;25.494;2023-05-02T09:08:31;96966.91;;;19.87;37.91
33185;BME280;19550;42.872;25.494;2023-05-02T09:10:58;96953.84;;;20.14;38.10
33185;BME280;19550;42.872;25.494;2023-05-02T09:13:33;96946.34;;;20.02;36.98
33185;BME280;19550;42.872;25.494;2023-05-02T09:16:01;96955.84;;;20.13;38.24
33185;BME280;19550;42.872;25.494;2023-05-02T09:18:29;96967.31;;;20.05;36.97
33185;BME280;19550;42.872;25.494;2023-05-02T09:20:58;96953.72;;;19.91;37.64
33185;BME280;19550;42.872;25.494;2023-05-02T09:23:38;96969.19;;;19.81;38.11
33185;BME280;19550;42.872;25.494;2023-05-02T09:26:15;96949.59;;;20.04;38.34
33185;BME280;19550;42.872;25.494;2023-05-02T09:28:44;96947.94;;;20.38;38.69
33185;BME280;19550;42.872;25.494;2023-05-02T09:31:12;96936.88;;;20.49;37.17
33185;BME280;19550;42.872;25.494;2023-05-02T09:33:40;96952.28;;;20.74;37.64
33185;BME280;19550;42.872;25.494;2023-05-02T09:36:10;96964.72;;;20.15;36.72
33185;BME280;19550;42.872;25.494;2023-05-02T09:38:40;96952.28;;;20.16;37.27
33185;BME280;19550;42.872;25.494;2023-05-02T09:41:07;96955.41;;;20.31;38.33
33185;BME280;19550;42.872;25.494;2023-05-02T09:43:34;96943.44;;;20.34;37.31
33185;BME280;19550;42.872;25.494;2023-05-02T09:46:02;96941.84;;;20.36;37.79
33185;BME280;19550;42.872;25.494;2023-05-02T09:48:30;96938.00;;;20.44;36.98
33185;BME280;19550;42.872;25.494;2023-05-02T09:50:58;96926.03;;;20.70;38.38
33185;BME280;19550;42.872;25.494;2023-05-02T09:53:27;96940.34;;;21.03;36.64
33185;BME280;19550;42.872;25.494;2023-05-02T09:56:02;96917.00;;;21.26;37.02
33185;BME280;19550;42.872;25.494;2023-05-02T09:58:29;96933.16;;;21.29;36.25
33185;BME280;19550;42.872;25.494;2023-05-02T10:00:57;96925.75;;;21.21;35.75
33185;BME280;19550;42.872;25.494;2023-05-02T10:03:26;96931.34;;;21.40;36.06
33185;BME280;19550;42.872;25.494;2023-05-02T10:05:53;96917.25;;;21.66;35.51
33185;BME280;19550;42.872;25.494;2023-05-02T10:08:21;96910.59;;;21.81;35.19
33185;BME280;19550;42.872;25.494;2023-05-02T10:10:52;96928.16;;;21.19;35.13
33185;BME280;19550;42.872;25.494;2023-05-02T10:13:22;96928.31;;;20.84;34.66
33185;BME280;19550;42.872;25.494;2023-05-02T10:15:57;96914.72;;;21.35;34.26
33185;BME280;19550;42.872;25.494;2023-05-02T10:18:32;96917.88;;;21.56;35.18
33185;BME280;19550;42.872;25.494;2023-05-02T10:21:04;96935.69;;;21.34;33.46
33185;BME280;19550;42.872;25.494;2023-05-02T10:23:33;96917.66;;;21.42;33.56
33185;BME280;19550;42.872;25.494;2023-05-02T10:26:01;96915.22;;;21.67;33.18
33185;BME280;19550;42.872;25.494;2023-05-02T10:28:29;96901.06;;;21.63;32.60
33185;BME280;19550;42.872;25.494;2023-05-02T10:30:57;96913.84;;;22.10;32.57
33185;BME280;19550;42.872;25.494;2023-05-02T10:33:27;96907.66;;;22.01;31.46
33185;BME280;19550;42.872;25.494;2023-05-02T10:35:54;96907.13;;;21.92;31.45
33185;BME280;19550;42.872;25.494;2023-05-02T10:38:21;96906.31;;;22.21;31.56
33185;BME280;19550;42.872;25.494;2023-05-02T10:40:55;96907.03;;;22.14;31.13
33185;BME280;19550;42.872;25.494;2023-05-02T10:43:24;96914.75;;;22.17;30.99
33185;BME280;19550;42.872;25.494;2023-05-02T10:45:54;96912.56;;;22.04;30.40
33185;BME280;19550;42.872;25.494;2023-05-02T10:48:22;96906.97;;;22.41;30.78
33185;BME280;19550;42.872;25.494;2023-05-02T10:50:52;96917.50;;;22.44;30.38
33185;BME280;19550;42.872;25.494;2023-05-02T10:53:29;96908.84;;;22.30;30.48
33185;BME280;19550;42.872;25.494;2023-05-02T10:56:08;96911.31;;;22.68;30.81
33185;BME280;19550;42.872;25.494;2023-05-02T10:58:36;96905.63;;;22.65;29.85
33185;BME280;19550;42.872;25.494;2023-05-02T11:01:32;96913.59;;;22.55;30.14
33185;BME280;19550;42.872;25.494;2023-05-02T11:04:02;96910.56;;;22.08;30.25
33185;BME280;19550;42.872;25.494;2023-05-02T11:06:31;96911.41;;;21.82;30.60
33185;BME280;19550;42.872;25.494;2023-05-02T11:09:32;96911.69;;;22.00;29.86
33185;BME280;19550;42.872;25.494;2023-05-02T11:12:00;96905.56;;;22.61;30.59
33185;BME280;19550;42.872;25.494;2023-05-02T11:14:56;96901.38;;;22.44;31.21
33185;BME280;19550;42.872;25.494;2023-05-02T11:17:24;96903.44;;;22.84;30.89
33185;BME280;19550;42.872;25.494;2023-05-02T11:22:59;96906.94;;;22.37;30.87
33185;BME280;19550;42.872;25.494;2023-05-02T11:25:48;96907.13;;;22.22;30.11
33185;BME280;19550;42.872;25.494;2023-05-02T11:28:43;96907.63;;;21.97;30.42
33185;BME280;19550;42.872;25.494;2023-05-02T11:34:39;96898.97;;;22.80;31.63
33185;BME280;19550;42.872;25.494;2023-05-02T11:37:10;96893.53;;;22.31;31.69
33185;BME280;19550;42.872;25.494;2023-05-02T11:39:37;96898.63;;;22.51;32.08
33185;BME280;19550;42.872;25.494;2023-05-02T11:42:04;96898.84;;;22.36;31.56
33185;BME280;19550;42.872;25.494;2023-05-02T11:44:31;96901.94;;;22.60;31.77
33185;BME280;19550;42.872;25.494;2023-05-02T11:46:59;96899.91;;;22.57;31.06
33185;BME280;19550;42.872;25.494;2023-05-02T11:49:26;96898.91;;;22.76;30.41
33185;BME280;19550;42.872;25.494;2023-05-02T11:51:54;96886.81;;;23.20;29.95
33185;BME280;19550;42.872;25.494;2023-05-02T11:54:21;96887.97;;;23.59;28.76
33185;BME280;19550;42.872;25.494;2023-05-02T11:56:48;96872.63;;;23.67;29.29
33185;BME280;19550;42.872;25.494;2023-05-02T11:59:15;96888.78;;;23.60;28.06
33185;BME280;19550;42.872;25.494;2023-05-02T12:01:46;96880.44;;;23.30;28.49
33185;BME280;19550;42.872;25.494;2023-05-02T12:04:13;96872.44;;;23.43;29.77
33185;BME280;19550;42.872;25.494;2023-05-02T12:06:54;96883.06;;;23.05;29.79
33185;BME280;19550;42.872;25.494;2023-05-02T12:09:22;96884.53;;;22.92;30.13
33185;BME280;19550;42.872;25.494;2023-05-02T12:11:51;96874.75;;;23.26;29.53
33185;BME280;19550;42.872;25.494;2023-05-02T12:14:26;96883.63;;;23.25;29.80
33185;BME280;19550;42.872;25.494;2023-05-02T12:16:53;96870.81;;;23.42;29.87
33185;BME280;19550;42.872;25.494;2023-05-02T12:19:20;96866.72;;;23.87;29.12
33185;BME280;19550;42.872;25.494;2023-05-02T12:21:47;96889.56;;;23.57;28.80
33185;BME280;19550;42.872;25.494;2023-05-02T12:24:15;96868.34;;;23.33;28.57
33185;BME280;19550;42.872;25.494;2023-05-02T12:26:42;96850.03;;;23.71;28.72
33185;BME280;19550;42.872;25.494;2023-05-02T12:29:09;96850.63;;;24.12;29.45
33185;BME280;19550;42.872;25.494;2023-05-02T12:31:36;96865.34;;;23.15;28.14
33185;BME280;19550;42.872;25.494;2023-05-02T12:34:04;96854.13;;;23.26;29.15
33185;BME280;19550;42.872;25.494;2023-05-02T12:36:31;96849.78;;;23.39;29.98
33185;BME280;19550;42.872;25.494;2023-05-02T12:38:58;96842.41;;;23.27;29.92
33185;BME280;19550;42.872;25.494;2023-05-02T12:41:34;96840.88;;;23.41;29.23
33185;BME280;19550;42.872;25.494;2023-05-02T12:44:01;96849.81;;;23.43;28.27
33185;BME280;19550;42.872;25.494;2023-05-02T12:46:28;96858.13;;;23.21;28.76
33185;BME280;19550;42.872;25.494;2023-05-02T12:49:03;96842.69;;;23.63;27.66
33185;BME280;19550;42.872;25.494;2023-05-02T12:51:30;96830.19;;;23.71;28.03
33185;BME280;19550;42.872;25.494;2023-05-02T12:53:58;96841.19;;;23.83;29.08
33185;BME280;19550;42.872;25.494;2023-05-02T12:56:25;96832.22;;;23.74;29.00
33185;BME280;19550;42.872;25.494;2023-05-02T12:58:58;96831.91;;;23.86;28.10
33185;BME280;19550;42.872;25.494;2023-05-02T13:01:26;96830.94;;;24.47;27.93
33185;BME280;19550;42.872;25.494;2023-05-02T13:03:52;96835.31;;;24.24;28.73
33185;BME280;19550;42.872;25.494;2023-05-02T13:06:19;96829.06;;;23.86;28.79